createdAt,value
2022-11-03T00:02:01.586Z,22.20
2022-11-03T00:04:32.395Z,22.30
2022-11-03T00:07:03.056Z,21.10
2022-11-03T00:09:34.296Z,21.50
2022-11-03T00:12:05.336Z,20.50
2022-11-03T00:14:35.947Z,20.50
2022-11-03T00:17:06.535Z,21.20
2022-11-03T00:19:37.199Z,20.80
2022-11-03T00:22:07.856Z,20.80
2022-11-03T00:24:38.480Z,20.00
2022-11-03T00:27:09.120Z,22.80
2022-11-03T00:29:39.898Z,23.20
2022-11-03T00:32:10.524Z,21.60
2022-11-03T00:34:41.562Z,21.30
2022-11-03T00:37:12.156Z,19.30
2022-11-03T00:39:42.789Z,20.00
2022-11-03T00:42:13.377Z,21.70
2022-11-03T00:44:44.149Z,21.20
2022-11-03T00:47:17.768Z,22.00
2022-11-03T00:49:50.766Z,22.50
2022-11-03T00:52:21.569Z,22.80
2022-11-03T00:54:55.195Z,21.20
2022-11-03T00:57:26.017Z,22.90
2022-11-03T00:59:56.879Z,21.70
2022-11-03T01:02:27.569Z,22.20
2022-11-03T01:05:15.674Z,21.10
2022-11-03T01:07:46.475Z,22.50
2022-11-03T01:10:17.180Z,21.30
2022-11-03T01:12:48.530Z,22.30
2022-11-03T01:15:19.677Z,22.90
2022-11-03T01:17:50.107Z,22.40
2022-11-03T01:20:21.224Z,21.00
2022-11-03T01:22:51.770Z,21.80
2022-11-03T01:25:23.270Z,20.60
2022-11-03T01:27:53.764Z,22.20
2022-11-03T01:30:24.639Z,22.00
2022-11-03T01:32:55.322Z,20.20
2022-11-03T01:35:25.862Z,22.60
2022-11-03T01:37:57.672Z,22.40
2022-11-03T01:40:28.371Z,22.90
2022-11-03T01:43:12.416Z,23.70
2022-11-03T01:45:43.125Z,21.70
2022-11-03T01:48:14.192Z,21.50
2022-11-03T01:50:46.345Z,21.10
2022-11-03T01:53:17.787Z,20.40
2022-11-03T01:55:50.764Z,20.90
2022-11-03T01:58:23.434Z,20.60
2022-11-03T02:00:56.156Z,19.70
2022-11-03T02:03:27.677Z,21.10
2022-11-03T02:05:58.364Z,21.70
2022-11-03T02:08:30.257Z,18.30
2022-11-03T02:11:20.852Z,19.00
2022-11-03T02:13:51.395Z,20.70
2022-11-03T02:16:24.827Z,20.50
2022-11-03T02:18:55.877Z,20.40
2022-11-03T02:21:28.224Z,19.10
2022-11-03T02:24:02.561Z,20.30
2022-11-03T02:26:33.276Z,20.00
2022-11-03T02:29:04.001Z,20.10
2022-11-03T02:31:36.792Z,18.30
2022-11-03T02:34:09.643Z,20.00
2022-11-03T02:36:43.253Z,19.20
2022-11-03T02:39:15.620Z,17.90
2022-11-03T02:41:48.143Z,18.30
2022-11-03T02:44:20.161Z,19.60
2022-11-03T02:46:54.063Z,19.40
2022-11-03T02:49:24.588Z,17.50
2022-11-03T02:52:01.917Z,17.60
2022-11-03T02:54:33.526Z,18.00
2022-11-03T02:57:07.044Z,18.60
2022-11-03T02:59:40.643Z,19.00
2022-11-03T03:02:13.580Z,18.90
2022-11-03T03:04:46.594Z,19.60
2022-11-03T03:07:18.900Z,22.00
2022-11-03T03:09:54.976Z,19.70
2022-11-03T03:12:30.758Z,22.00
2022-11-03T03:15:11.091Z,19.40
2022-11-03T03:17:46.175Z,20.70
2022-11-03T03:20:21.813Z,23.40
2022-11-03T03:22:59.272Z,24.60
2022-11-03T03:25:35.613Z,20.30
2022-11-03T03:28:09.888Z,20.90
2022-11-03T03:30:41.749Z,22.30
2022-11-03T03:33:13.649Z,21.10
2022-11-03T03:35:45.784Z,20.80
2022-11-03T03:38:27.085Z,22.50
2022-11-03T03:40:58.951Z,22.60
2022-11-03T03:43:30.376Z,20.40
2022-11-03T03:46:04.066Z,20.50
2022-11-03T03:51:14.162Z,21.50
2022-11-03T03:53:51.108Z,21.80
2022-11-03T03:56:25.019Z,21.80
2022-11-03T03:58:55.786Z,23.10
2022-11-03T04:01:26.433Z,23.80
2022-11-03T04:04:01.212Z,22.80
2022-11-03T04:06:40.940Z,21.30
2022-11-03T04:09:16.206Z,22.50
2022-11-03T04:12:08.951Z,20.90
2022-11-03T04:14:57.703Z,20.70
2022-11-03T04:17:45.953Z,20.20
2022-11-03T04:20:34.438Z,20.90
2022-11-03T04:23:05.082Z,21.60
2022-11-03T04:25:36.282Z,18.40
2022-11-03T04:28:09.794Z,20.10
2022-11-03T04:30:53.382Z,20.40
2022-11-03T04:33:27.319Z,22.10
2022-11-03T04:35:59.286Z,19.80
2022-11-03T04:38:34.794Z,19.80
2022-11-03T04:41:08.351Z,20.80
2022-11-03T04:46:10.528Z,19.30
2022-11-03T04:48:41.160Z,19.40
2022-11-03T04:51:17.495Z,20.00
2022-11-03T04:53:50.533Z,22.20
2022-11-03T04:56:22.218Z,21.70
2022-11-03T04:58:53.301Z,22.00
2022-11-03T05:01:24.963Z,21.30
2022-11-03T05:03:59.766Z,19.70
2022-11-03T05:06:31.051Z,20.70
2022-11-03T05:09:03.376Z,19.90
2022-11-03T05:11:36.057Z,22.20
2022-11-03T05:14:14.347Z,22.60
2022-11-03T05:16:45.417Z,21.40
2022-11-03T05:19:16.819Z,20.30
2022-11-03T05:21:51.229Z,20.80
2022-11-03T05:24:25.986Z,21.00
2022-11-03T05:26:57.598Z,20.80
2022-11-03T05:29:31.262Z,19.00
2022-11-03T05:32:11.762Z,20.30
2022-11-03T05:34:44.398Z,23.10
2022-11-03T05:37:26.759Z,22.30
2022-11-03T05:39:59.547Z,22.10
2022-11-03T05:42:36.154Z,21.10
2022-11-03T05:45:23.793Z,21.00
2022-11-03T05:47:55.458Z,22.20
2022-11-03T05:50:26.472Z,21.30
2022-11-03T05:53:05.004Z,24.00
2022-11-03T05:55:37.148Z,23.80
2022-11-03T05:58:14.784Z,22.10
2022-11-03T06:00:48.790Z,18.50
2022-11-03T06:03:22.773Z,18.80
2022-11-03T06:05:54.009Z,19.60
2022-11-03T06:08:27.128Z,19.70
2022-11-03T06:10:59.288Z,20.20
2022-11-03T06:13:32.059Z,21.40
2022-11-03T06:16:05.519Z,21.90
2022-11-03T06:18:37.616Z,20.90
2022-11-03T06:21:10.724Z,19.20
2022-11-03T06:23:46.403Z,20.60
2022-11-03T06:26:25.514Z,19.10
2022-11-03T06:28:57.034Z,19.60
2022-11-03T06:31:28.688Z,18.40
2022-11-03T06:33:59.761Z,19.70
2022-11-03T06:36:37.952Z,18.80
2022-11-03T06:39:12.877Z,19.70
2022-11-03T06:41:43.268Z,20.00
2022-11-03T06:44:21.164Z,19.80
2022-11-03T06:46:51.527Z,20.80
2022-11-03T06:49:28.861Z,19.70
2022-11-03T06:52:00.061Z,19.10
2022-11-03T06:54:31.733Z,19.70
2022-11-03T06:57:02.104Z,20.00
2022-11-03T06:59:32.765Z,20.60
2022-11-03T07:02:03.422Z,21.10
2022-11-03T07:04:34.375Z,21.40
2022-11-03T07:07:05.487Z,23.30
2022-11-03T07:09:36.219Z,25.40
2022-11-03T07:12:14.736Z,25.20
2022-11-03T07:14:45.788Z,23.80
2022-11-03T07:17:17.730Z,23.10
2022-11-03T07:19:48.770Z,23.30
2022-11-03T07:22:21.172Z,27.60
2022-11-03T07:24:53.786Z,29.70
2022-11-03T07:27:25.416Z,26.40
2022-11-03T07:29:58.871Z,26.70
2022-11-03T07:32:30.755Z,25.30
2022-11-03T07:35:04.154Z,26.80
2022-11-03T07:37:35.639Z,26.50
2022-11-03T07:40:07.145Z,25.50
2022-11-03T07:42:37.654Z,27.40
2022-11-03T07:45:32.375Z,28.90
2022-11-03T07:48:04.679Z,29.50
2022-11-03T07:50:35.566Z,28.90
2022-11-03T07:53:10.204Z,26.20
2022-11-03T07:55:41.065Z,26.80
2022-11-03T07:58:22.067Z,30.30
2022-11-03T08:00:57.592Z,28.60
2022-11-03T08:03:29.269Z,27.10
2022-11-03T08:06:00.011Z,25.80
2022-11-03T08:08:31.400Z,24.80
2022-11-03T08:11:06.602Z,23.10
2022-11-03T08:13:37.206Z,24.90
2022-11-03T08:16:08.633Z,25.40
2022-11-03T08:18:39.138Z,22.20
2022-11-03T08:21:14.454Z,22.40
2022-11-03T08:23:54.429Z,23.10
2022-11-03T08:26:29.999Z,22.10
2022-11-03T08:29:00.569Z,19.00
2022-11-03T08:31:35.810Z,19.90
2022-11-03T08:34:06.718Z,21.90
2022-11-03T08:36:37.455Z,18.30
2022-11-03T08:39:07.954Z,19.50
2022-11-03T08:41:38.579Z,20.00
2022-11-03T08:44:08.980Z,18.70
2022-11-03T08:46:39.780Z,18.20
2022-11-03T08:49:10.244Z,18.00
2022-11-03T08:51:46.659Z,17.80
2022-11-03T08:54:17.437Z,15.30
2022-11-03T08:56:52.209Z,17.50
2022-11-03T08:59:28.105Z,14.00
2022-11-03T09:01:59.708Z,15.70
2022-11-03T09:04:34.338Z,13.00
2022-11-03T09:07:10.244Z,14.20
2022-11-03T09:12:31.889Z,13.30
2022-11-03T09:15:02.492Z,13.20
2022-11-03T09:17:33.257Z,13.00
2022-11-03T09:20:09.866Z,13.30
2022-11-03T09:22:41.580Z,13.10
2022-11-03T09:25:12.152Z,14.30
2022-11-03T09:27:47.368Z,15.10
2022-11-03T09:30:19.186Z,13.20
2022-11-03T09:32:49.731Z,12.50
2022-11-03T09:35:21.254Z,11.80
2022-11-03T09:37:52.025Z,11.10
2022-11-03T09:40:27.733Z,11.70
2022-11-03T09:43:03.348Z,10.80
2022-11-03T09:45:34.199Z,11.50
2022-11-03T09:48:05.542Z,10.20
2022-11-03T09:50:36.475Z,9.30
2022-11-03T09:53:07.579Z,12.00
2022-11-03T09:55:38.807Z,12.40
2022-11-03T09:58:14.213Z,10.30
2022-11-03T10:00:45.309Z,9.90
2022-11-03T10:03:18.557Z,11.10
2022-11-03T10:05:49.367Z,9.70
2022-11-03T10:08:23.482Z,9.10
2022-11-03T10:10:54.602Z,9.20
2022-11-03T10:13:28.233Z,8.30
2022-11-03T10:15:58.842Z,9.30
2022-11-03T10:18:29.985Z,8.50
2022-11-03T10:21:03.801Z,9.20
2022-11-03T10:23:34.865Z,8.40
2022-11-03T10:26:09.771Z,7.50
2022-11-03T10:28:40.684Z,8.00
2022-11-03T10:31:21.028Z,7.00
2022-11-03T10:33:55.184Z,7.10
2022-11-03T10:36:26.976Z,7.30
2022-11-03T10:38:57.843Z,6.90
2022-11-03T10:41:29.625Z,7.20
2022-11-03T10:44:04.911Z,6.70
2022-11-03T10:46:50.224Z,6.40
2022-11-03T10:49:21.954Z,5.30
2022-11-03T10:51:53.865Z,5.80
2022-11-03T10:54:25.936Z,4.60
2022-11-03T10:56:56.706Z,5.50
2022-11-03T10:59:32.256Z,4.50
2022-11-03T11:02:03.214Z,4.70
2022-11-03T11:04:34.693Z,4.90
2022-11-03T11:07:13.489Z,5.70
2022-11-03T11:09:44.044Z,4.40
2022-11-03T11:12:18.952Z,4.70
2022-11-03T11:14:56.964Z,4.10
2022-11-03T11:17:47.037Z,4.40
2022-11-03T11:20:43.482Z,4.70
2022-11-03T11:23:31.109Z,4.50
2022-11-03T11:26:15.371Z,4.90
2022-11-03T11:28:46.516Z,4.90
2022-11-03T11:31:31.024Z,4.20
2022-11-03T11:34:18.771Z,4.10
2022-11-03T11:37:11.440Z,3.60
2022-11-03T11:39:47.929Z,3.70
2022-11-03T11:42:20.434Z,3.80
2022-11-03T11:45:02.032Z,4.20
2022-11-03T11:47:34.322Z,3.40
2022-11-03T11:50:16.539Z,5.00
2022-11-03T11:52:48.809Z,4.90
2022-11-03T11:55:20.485Z,3.70
2022-11-03T11:57:51.742Z,4.40
2022-11-03T12:00:24.819Z,3.60
2022-11-03T12:02:56.681Z,4.00
2022-11-03T12:05:28.505Z,4.00
2022-11-03T12:07:59.676Z,4.20
2022-11-03T12:10:31.361Z,3.90
2022-11-03T12:13:02.121Z,3.80
2022-11-03T12:15:50.304Z,4.80
2022-11-03T12:18:40.689Z,3.40
2022-11-03T12:21:14.279Z,3.80
2022-11-03T12:23:50.140Z,4.00
2022-11-03T12:26:40.964Z,4.30
2022-11-03T12:29:15.836Z,4.10
2022-11-03T12:31:48.143Z,4.40
2022-11-03T12:34:23.081Z,4.20
2022-11-03T12:36:56.379Z,4.10
2022-11-03T12:39:27.309Z,4.40
2022-11-03T12:41:58.447Z,3.90
2022-11-03T12:44:29.146Z,4.00
2022-11-03T12:46:59.958Z,4.00
2022-11-03T12:49:30.683Z,3.90
2022-11-03T12:52:08.318Z,3.60
2022-11-03T12:54:39.765Z,4.10
2022-11-03T12:57:10.250Z,3.80
2022-11-03T12:59:41.262Z,4.40
2022-11-03T13:02:16.772Z,4.10
2022-11-03T13:04:48.974Z,4.10
2022-11-03T13:07:26.617Z,4.70
2022-11-03T13:10:05.053Z,4.60
2022-11-03T13:12:41.764Z,4.20
2022-11-03T13:15:13.703Z,4.50
2022-11-03T13:18:12.399Z,4.60
2022-11-03T13:20:41.185Z,4.50
2022-11-03T13:23:11.740Z,5.00
2022-11-03T13:25:43.386Z,4.50
2022-11-03T13:28:13.897Z,3.60
2022-11-03T13:30:44.916Z,4.20
2022-11-03T13:33:15.493Z,5.10
2022-11-03T13:35:46.449Z,3.90
2022-11-03T13:38:17.137Z,4.30
2022-11-03T13:40:59.217Z,4.50
2022-11-03T13:43:34.172Z,4.20
2022-11-03T13:46:05.366Z,5.40
2022-11-03T13:51:36.464Z,5.60
2022-11-03T14:00:01.870Z,5.70
2022-11-03T14:05:34.927Z,4.70
2022-11-03T14:08:06.611Z,4.60
2022-11-03T14:10:37.375Z,4.20
2022-11-03T14:13:08.885Z,4.40
2022-11-03T14:15:39.904Z,4.90
2022-11-03T14:18:20.570Z,4.70
2022-11-03T14:21:00.524Z,5.40
2022-11-03T14:23:40.218Z,5.00
2022-11-03T14:26:40.225Z,4.60
2022-11-03T14:29:11.002Z,4.90
2022-11-03T14:31:41.442Z,4.50
2022-11-03T14:34:12.069Z,5.10
2022-11-03T14:36:42.694Z,4.90
2022-11-03T14:39:13.539Z,4.70
2022-11-03T14:42:01.736Z,5.10
2022-11-03T14:44:32.629Z,4.80
2022-11-03T14:47:03.771Z,4.10
2022-11-03T14:49:35.289Z,4.60
2022-11-03T14:52:10.792Z,4.70
2022-11-03T14:54:52.265Z,4.30
2022-11-03T14:57:23.030Z,4.50
2022-11-03T14:59:53.958Z,4.20
2022-11-03T15:02:25.063Z,4.10
2022-11-03T15:07:32.396Z,5.00
2022-11-03T15:10:03.092Z,5.00
2022-11-03T15:12:33.824Z,4.40
2022-11-03T15:15:04.860Z,4.60
2022-11-03T15:17:35.614Z,5.40
2022-11-03T15:20:07.182Z,5.30
2022-11-03T15:25:32.192Z,4.90
2022-11-03T15:28:04.877Z,5.30
2022-11-03T15:30:35.997Z,5.20
2022-11-03T15:33:06.911Z,5.50
2022-11-03T15:35:38.055Z,6.50
2022-11-03T15:38:09.213Z,5.30
2022-11-03T15:40:40.396Z,6.50
2022-11-03T15:43:11.203Z,6.00
2022-11-03T15:45:42.242Z,6.90
2022-11-03T15:48:13.111Z,5.70
2022-11-03T15:50:43.902Z,6.50
2022-11-03T15:53:14.546Z,6.00
2022-11-03T15:55:45.158Z,6.60
2022-11-03T15:58:15.613Z,6.00
2022-11-03T16:00:46.438Z,6.70
2022-11-03T16:03:17.226Z,7.20
2022-11-03T16:05:48.052Z,7.70
2022-11-03T16:08:18.804Z,6.10
2022-11-03T16:10:54.709Z,7.00
2022-11-03T16:13:28.047Z,6.50
2022-11-03T16:15:58.642Z,6.40
2022-11-03T16:18:29.345Z,6.70
2022-11-03T16:20:59.871Z,6.90
2022-11-03T16:23:34.802Z,7.60
2022-11-03T16:26:05.792Z,8.60
2022-11-03T16:28:36.265Z,7.60
2022-11-03T16:31:07.520Z,7.20
2022-11-03T16:33:37.944Z,8.10
2022-11-03T16:36:09.383Z,7.50
2022-11-03T16:38:39.847Z,7.10
2022-11-03T16:41:10.658Z,7.70
2022-11-03T16:43:41.279Z,6.00
2022-11-03T16:46:12.332Z,6.80
2022-11-03T16:48:42.953Z,7.50
2022-11-03T16:51:14.000Z,8.50
2022-11-03T16:53:45.040Z,7.50
2022-11-03T16:56:15.895Z,8.30
2022-11-03T16:58:46.399Z,8.30
2022-11-03T17:01:21.409Z,8.10
2022-11-03T17:03:54.142Z,8.70
2022-11-03T17:06:24.711Z,8.60
2022-11-03T17:09:00.037Z,9.50
2022-11-03T17:11:37.109Z,8.70
2022-11-03T17:14:08.846Z,8.80
2022-11-03T17:16:42.445Z,9.70
2022-11-03T17:21:43.474Z,10.40
2022-11-03T17:24:14.004Z,9.80
2022-11-03T17:26:51.603Z,10.50
2022-11-03T17:29:23.874Z,11.70
2022-11-03T17:32:00.162Z,10.10
2022-11-03T17:34:34.858Z,10.00
2022-11-03T17:37:06.003Z,10.40
2022-11-03T17:39:38.170Z,10.90
2022-11-03T17:42:16.074Z,10.80
2022-11-03T17:44:51.871Z,10.60
2022-11-03T17:47:27.595Z,11.10
2022-11-03T17:50:02.946Z,10.60
2022-11-03T17:52:38.098Z,9.70
2022-11-03T17:55:16.718Z,11.30
2022-11-03T17:57:47.773Z,12.20
2022-11-03T18:00:21.007Z,12.90
2022-11-03T18:02:52.763Z,13.40
2022-11-03T18:05:26.824Z,14.30
2022-11-03T18:07:58.114Z,12.90
2022-11-03T18:10:30.288Z,12.00
2022-11-03T18:13:17.556Z,12.10
2022-11-03T18:15:49.690Z,11.70
2022-11-03T18:18:22.758Z,11.70
2022-11-03T18:20:54.104Z,11.90
2022-11-03T18:23:25.397Z,11.30
2022-11-03T18:25:55.855Z,10.90
2022-11-03T18:28:26.337Z,12.80
2022-11-03T18:30:57.752Z,10.90
2022-11-03T18:33:30.739Z,13.30
2022-11-03T18:36:03.105Z,11.00
2022-11-03T18:38:36.237Z,13.40
2022-11-03T18:41:28.129Z,11.70
2022-11-03T18:43:59.214Z,10.70
2022-11-03T18:46:30.728Z,11.60
2022-11-03T18:49:01.459Z,13.00
2022-11-03T18:51:31.964Z,12.30
2022-11-03T18:54:02.544Z,12.80
2022-11-03T18:56:35.841Z,12.60
2022-11-03T18:59:15.583Z,12.00
2022-11-03T19:01:46.902Z,13.50
2022-11-03T19:04:18.042Z,12.30
2022-11-03T19:06:52.145Z,14.00
2022-11-03T19:09:24.955Z,14.00
2022-11-03T19:11:56.752Z,14.50
2022-11-03T19:14:32.965Z,13.70
2022-11-03T19:17:21.960Z,15.20
2022-11-03T19:19:59.904Z,14.80
2022-11-03T19:22:31.058Z,13.50
2022-11-03T19:25:01.740Z,14.10
2022-11-03T19:27:38.947Z,14.70
2022-11-03T19:30:12.860Z,15.20
2022-11-03T19:32:48.919Z,15.70
2022-11-03T19:35:27.317Z,16.10
2022-11-03T19:38:04.256Z,16.20
2022-11-03T19:41:00.304Z,17.00
2022-11-03T19:43:34.627Z,15.90
2022-11-03T19:46:06.224Z,17.00
2022-11-03T19:48:41.115Z,17.50
2022-11-03T19:51:13.677Z,17.60
2022-11-03T19:53:47.257Z,16.60
2022-11-03T19:56:19.670Z,14.90
2022-11-03T19:58:50.196Z,15.30
2022-11-03T20:01:21.487Z,16.90
2022-11-03T20:03:56.953Z,18.20
2022-11-03T20:06:28.169Z,17.60
2022-11-03T20:08:58.794Z,16.70
2022-11-03T20:11:29.848Z,16.50
2022-11-03T20:14:00.477Z,16.90
2022-11-03T20:16:32.132Z,16.90
2022-11-03T20:19:03.367Z,15.30
2022-11-03T20:21:34.648Z,17.20
2022-11-03T20:24:05.966Z,16.00
2022-11-03T20:26:36.704Z,14.90
2022-11-03T20:29:12.502Z,15.70
2022-11-03T20:31:43.712Z,17.30
2022-11-03T20:34:15.852Z,16.90
2022-11-03T20:36:48.128Z,15.70
2022-11-03T20:39:19.947Z,16.10
2022-11-03T20:41:52.459Z,16.50
2022-11-03T20:44:23.958Z,16.90
2022-11-03T20:46:54.650Z,18.00
2022-11-03T20:49:25.336Z,16.40
2022-11-03T20:51:56.628Z,16.40
2022-11-03T20:54:27.248Z,15.30
2022-11-03T20:56:57.878Z,16.90
2022-11-03T20:59:32.103Z,18.50
2022-11-03T21:02:12.177Z,18.80
2022-11-03T21:07:15.688Z,19.70
2022-11-03T21:09:46.292Z,17.40
2022-11-03T21:12:18.759Z,16.90
2022-11-03T21:15:03.224Z,17.90
2022-11-03T21:17:51.774Z,17.60
2022-11-03T21:20:22.707Z,17.90
2022-11-03T21:22:54.429Z,17.60
2022-11-03T21:25:25.532Z,19.30
2022-11-03T21:27:56.242Z,16.60
2022-11-03T21:30:26.775Z,17.50
2022-11-03T21:33:02.424Z,18.40
2022-11-03T21:35:38.289Z,18.20
2022-11-03T21:38:09.917Z,19.20
2022-11-03T21:40:45.685Z,19.40
2022-11-03T21:43:34.307Z,18.40
2022-11-03T21:46:05.876Z,18.00
2022-11-03T21:48:54.049Z,18.30
2022-11-03T21:51:25.283Z,17.30
2022-11-03T21:53:56.208Z,18.00
2022-11-03T21:56:30.792Z,18.00
2022-11-03T21:59:01.550Z,16.90
2022-11-03T22:01:32.103Z,16.60
2022-11-03T22:04:03.264Z,17.50
2022-11-03T22:06:33.689Z,18.00
2022-11-03T22:09:08.487Z,19.50
2022-11-03T22:11:39.321Z,18.60
2022-11-03T22:14:11.944Z,17.00
2022-11-03T22:16:42.935Z,18.50
2022-11-03T22:19:32.553Z,17.20
2022-11-03T22:22:21.866Z,17.70
2022-11-03T22:25:10.125Z,17.80
2022-11-03T22:27:40.756Z,18.50
2022-11-03T22:30:29.410Z,19.00
2022-11-03T22:33:04.141Z,19.30
2022-11-03T22:35:57.622Z,18.20
2022-11-03T22:38:42.292Z,18.00
2022-11-03T22:41:30.231Z,16.80
2022-11-03T22:44:18.789Z,16.70
2022-11-03T22:46:49.403Z,18.70
2022-11-03T22:49:24.839Z,19.20
2022-11-03T22:52:00.093Z,19.70
2022-11-03T22:54:30.935Z,19.50
2022-11-03T22:57:01.602Z,19.70
2022-11-03T22:59:32.220Z,18.10
2022-11-03T23:02:03.022Z,19.30
2022-11-03T23:04:33.640Z,18.90
2022-11-03T23:07:04.154Z,20.70
2022-11-03T23:09:34.791Z,21.10
2022-11-03T23:12:06.039Z,19.40
2022-11-03T23:14:50.504Z,17.50
2022-11-03T23:17:41.392Z,17.00
2022-11-03T23:20:29.837Z,17.60
2022-11-03T23:23:00.593Z,19.80
2022-11-03T23:25:32.569Z,18.70
2022-11-03T23:28:03.263Z,18.30
2022-11-03T23:30:33.966Z,16.70
2022-11-03T23:33:05.363Z,17.60
2022-11-03T23:35:40.246Z,18.50
2022-11-03T23:38:11.061Z,17.70
2022-11-03T23:40:42.236Z,18.50
2022-11-03T23:43:13.820Z,20.30
2022-11-03T23:46:01.974Z,20.50
2022-11-03T23:48:51.232Z,21.00
2022-11-03T23:51:23.287Z,20.90
2022-11-03T23:53:54.257Z,21.20
2022-11-03T23:56:52.241Z,20.60
2022-11-03T23:59:22.857Z,18.10
